createdAt,value
2023-02-12T06:16:05.699Z,60.35
2023-02-12T06:18:36.037Z,99.72
2023-02-12T06:21:06.308Z,127.45
2023-02-12T06:23:33.334Z,131.38
2023-02-12T06:26:00.381Z,130.90
2023-02-12T06:28:27.459Z,113.18
2023-02-12T06:30:54.585Z,82.22
2023-02-12T06:33:21.994Z,82.57
2023-02-12T06:35:48.981Z,59.35
2023-02-12T06:38:16.137Z,57.90
2023-02-12T06:40:43.111Z,55.65
2023-02-12T06:43:10.268Z,40.03
2023-02-12T06:45:37.176Z,62.45
2023-02-12T06:48:04.149Z,42.80
2023-02-12T06:50:31.288Z,42.13
2023-02-12T06:52:59.373Z,46.80
2023-02-12T06:55:26.492Z,45.83
2023-02-12T06:57:56.253Z,52.35
2023-02-12T07:00:26.270Z,44.33
2023-02-12T07:02:56.879Z,42.03
2023-02-12T07:05:24.653Z,33.88
2023-02-12T07:07:52.029Z,37.33
2023-02-12T07:10:19.322Z,32.15
2023-02-12T07:12:46.878Z,33.95
2023-02-12T07:15:14.774Z,32.05
2023-02-12T07:17:41.811Z,27.25
2023-02-12T07:20:09.218Z,32.88
2023-02-12T07:22:37.257Z,29.23
2023-02-12T07:25:04.916Z,30.83
2023-02-12T07:27:31.888Z,32.85
2023-02-12T07:29:58.813Z,35.17
2023-02-12T07:32:25.695Z,34.22
2023-02-12T07:34:52.539Z,36.03
2023-02-12T07:37:22.766Z,41.10
2023-02-12T07:39:50.416Z,37.50
2023-02-12T07:42:18.429Z,40.83
2023-02-12T07:44:45.808Z,47.95
2023-02-12T07:47:12.720Z,43.33
2023-02-12T07:49:39.665Z,47.25
2023-02-12T07:52:06.570Z,36.75
2023-02-12T07:54:33.676Z,44.33
2023-02-12T07:57:00.719Z,41.80
2023-02-12T07:59:28.604Z,39.28
2023-02-12T08:01:56.430Z,37.08
2023-02-12T08:04:25.654Z,41.55
2023-02-12T08:06:54.953Z,39.08
2023-02-12T08:09:27.451Z,32.70
2023-02-12T08:11:54.985Z,34.20
2023-02-12T08:14:22.381Z,37.85
2023-02-12T08:16:50.496Z,35.42
2023-02-12T08:19:22.458Z,38.10
2023-02-12T08:21:52.915Z,33.88
2023-02-12T08:24:19.894Z,33.53
2023-02-12T08:26:46.954Z,31.83
2023-02-12T08:29:21.379Z,38.45
2023-02-12T08:31:49.711Z,27.15
2023-02-12T08:34:22.717Z,26.50
2023-02-12T08:36:51.251Z,29.38
2023-02-12T08:39:18.912Z,25.13
2023-02-12T08:41:46.314Z,24.60
2023-02-12T08:44:16.955Z,37.95
2023-02-12T08:46:47.346Z,34.58
2023-02-12T08:49:17.300Z,27.67
2023-02-12T08:51:48.652Z,38.15
2023-02-12T08:54:21.326Z,40.58
2023-02-12T08:56:48.439Z,37.33
2023-02-12T08:59:17.066Z,35.22
2023-02-12T09:01:44.370Z,37.75
2023-02-12T09:04:17.837Z,36.05
2023-02-12T09:06:45.689Z,34.55
2023-02-12T09:09:12.866Z,37.85
2023-02-12T09:11:40.109Z,32.50
2023-02-12T09:14:11.751Z,30.98
2023-02-12T09:16:40.551Z,36.63
2023-02-12T09:19:09.033Z,35.08
2023-02-12T09:21:36.024Z,43.03
2023-02-12T09:24:03.743Z,34.13
2023-02-12T09:26:31.172Z,36.20
2023-02-12T09:28:58.341Z,43.05
2023-02-12T09:31:32.936Z,31.58
2023-02-12T09:34:02.409Z,34.08
2023-02-12T09:36:30.014Z,33.05
2023-02-12T09:38:59.259Z,27.13
2023-02-12T09:41:44.789Z,32.55
2023-02-12T09:44:37.865Z,41.67
2023-02-12T09:47:20.321Z,40.15
2023-02-12T09:50:13.684Z,33.50
2023-02-12T09:52:41.680Z,29.55
2023-02-12T09:55:15.458Z,34.63
2023-02-12T09:57:43.159Z,31.77
2023-02-12T10:00:21.851Z,39.05
2023-02-12T10:02:52.921Z,31.85
2023-02-12T10:05:32.283Z,35.20
2023-02-12T10:08:24.641Z,34.53
2023-02-12T10:10:53.343Z,36.28
2023-02-12T10:13:49.219Z,32.47
2023-02-12T10:16:38.398Z,41.92
2023-02-12T10:19:40.338Z,32.88
2023-02-12T10:22:48.208Z,35.00
2023-02-12T10:25:34.838Z,32.33
2023-02-12T10:28:09.102Z,26.90
2023-02-12T10:30:57.835Z,33.83
2023-02-12T10:33:36.466Z,27.23
2023-02-12T10:36:19.044Z,31.58
2023-02-12T10:38:58.393Z,29.13
2023-02-12T10:41:28.364Z,30.00
2023-02-12T10:43:58.336Z,30.75
2023-02-12T10:46:25.273Z,31.40
2023-02-12T10:48:59.964Z,27.85
2023-02-12T10:52:00.392Z,31.15
2023-02-12T10:54:42.975Z,29.90
2023-02-12T10:57:23.304Z,36.40
2023-02-12T10:59:53.337Z,30.80
2023-02-12T11:02:23.854Z,26.17
2023-02-12T11:04:52.293Z,35.63
2023-02-12T11:07:21.080Z,31.05
2023-02-12T11:09:53.808Z,32.42
2023-02-12T11:12:20.818Z,28.83
2023-02-12T11:15:15.555Z,31.23
2023-02-12T11:20:16.917Z,24.52
2023-02-12T11:23:01.518Z,31.57
2023-02-12T11:25:34.182Z,26.35
2023-02-12T11:28:17.165Z,25.92
2023-02-12T11:30:58.551Z,23.70
2023-02-12T11:33:31.468Z,24.02
2023-02-12T11:36:01.693Z,22.90
2023-02-12T11:38:39.076Z,23.77
2023-02-12T11:41:24.785Z,23.95
2023-02-12T11:43:59.002Z,25.33
2023-02-12T11:46:28.124Z,23.75
2023-02-12T11:48:57.360Z,18.27
2023-02-12T11:51:30.338Z,20.67
2023-02-12T11:54:03.206Z,17.55
2023-02-12T11:56:49.056Z,14.38
2023-02-12T11:59:34.846Z,13.85
2023-02-12T12:02:28.670Z,12.68
2023-02-12T12:05:03.794Z,8.60
2023-02-12T12:07:34.450Z,13.63
2023-02-12T12:10:13.605Z,11.10
2023-02-12T12:12:51.341Z,12.30
2023-02-12T12:15:46.070Z,15.40
2023-02-12T12:18:44.053Z,11.32
2023-02-12T12:21:25.874Z,12.50
2023-02-12T12:23:59.188Z,14.27
2023-02-12T12:26:32.185Z,10.00
2023-02-12T12:29:24.286Z,7.20
2023-02-12T12:31:56.381Z,4.38
2023-02-12T12:34:25.418Z,4.00
2023-02-12T12:37:07.710Z,2.70
2023-02-12T12:39:41.746Z,4.13
2023-02-12T12:45:09.546Z,10.00
2023-02-12T12:47:58.594Z,1.92
2023-02-12T12:50:45.864Z,0.73
2023-02-12T12:53:15.630Z,0.73
2023-02-12T12:55:58.182Z,2.03
2023-02-12T12:58:43.838Z,0.30
2023-02-12T13:01:38.882Z,1.52
2023-02-12T13:04:36.862Z,1.63
2023-02-12T13:07:17.028Z,1.05
2023-02-12T13:09:59.040Z,2.88
2023-02-12T13:12:38.324Z,7.82
2023-02-12T13:15:28.539Z,4.85
2023-02-12T13:18:17.456Z,5.57
2023-02-12T13:20:59.459Z,5.15
2023-02-12T13:23:42.259Z,8.18
2023-02-12T13:26:09.169Z,6.97
2023-02-12T13:28:53.236Z,7.47
2023-02-12T13:31:33.484Z,4.07
2023-02-12T13:34:14.525Z,16.55
2023-02-12T13:36:42.937Z,5.30
2023-02-12T13:39:12.597Z,5.28
2023-02-12T13:41:44.974Z,10.48
2023-02-12T13:44:32.601Z,10.45
2023-02-12T13:47:23.022Z,2.25
2023-02-12T13:50:07.165Z,3.97
2023-02-12T13:52:39.418Z,6.70
2023-02-12T13:55:35.861Z,3.47
2023-02-12T13:58:47.136Z,5.50
2023-02-12T14:01:33.995Z,3.88
2023-02-12T14:04:19.428Z,3.63
2023-02-12T14:07:03.011Z,6.90
2023-02-12T14:09:34.013Z,5.32
2023-02-12T14:12:02.372Z,3.40
2023-02-12T14:14:51.769Z,9.70
2023-02-12T14:17:31.006Z,8.50
2023-02-12T14:20:06.774Z,4.88
2023-02-12T14:22:33.716Z,4.18
2023-02-12T14:25:25.475Z,5.88
2023-02-12T14:27:58.541Z,1.80
2023-02-12T14:30:40.291Z,3.03
2023-02-12T14:33:07.365Z,3.85
2023-02-12T14:35:42.061Z,11.45
2023-02-12T14:38:11.865Z,31.30
2023-02-12T14:40:46.837Z,71.65
2023-02-12T14:43:55.233Z,51.30
2023-02-12T14:46:25.295Z,46.83
2023-02-12T14:48:56.200Z,56.50
2023-02-12T14:51:47.237Z,69.75
2023-02-12T14:54:21.586Z,72.28
2023-02-12T14:56:50.319Z,76.82
2023-02-12T14:59:23.300Z,79.00
2023-02-12T15:01:54.071Z,43.30
2023-02-12T15:04:31.601Z,25.35
2023-02-12T15:07:08.240Z,20.02
2023-02-12T15:10:21.329Z,24.08
2023-02-12T15:13:13.070Z,22.17
2023-02-12T15:15:44.263Z,21.10
2023-02-12T15:18:41.651Z,20.95
2023-02-12T15:21:25.468Z,19.23
2023-02-12T15:24:26.074Z,19.35
2023-02-12T15:26:56.294Z,20.90
2023-02-12T15:29:55.280Z,26.38
2023-02-12T15:32:27.676Z,21.52
2023-02-12T15:34:56.250Z,18.67
2023-02-12T15:37:29.834Z,23.40
2023-02-12T15:40:03.729Z,22.02
2023-02-12T15:42:35.058Z,19.23
2023-02-12T15:45:07.915Z,18.65
2023-02-12T15:47:34.897Z,18.33
2023-02-12T15:50:05.310Z,12.88
2023-02-12T15:52:38.115Z,11.60
2023-02-12T15:55:06.270Z,12.95
2023-02-12T15:57:33.999Z,17.95
2023-02-12T16:00:09.327Z,15.60
2023-02-12T16:02:36.370Z,13.45
2023-02-12T16:05:05.766Z,15.68
2023-02-12T16:07:37.089Z,14.82
2023-02-12T16:10:05.486Z,15.45
2023-02-12T16:12:37.717Z,15.93
2023-02-12T16:15:05.455Z,12.57
2023-02-12T16:17:34.709Z,15.85
2023-02-12T16:20:04.661Z,15.98
2023-02-12T16:22:48.588Z,15.20
2023-02-12T16:25:24.436Z,17.17
2023-02-12T16:28:01.992Z,19.85
2023-02-12T16:30:38.915Z,21.40
2023-02-12T16:33:56.077Z,13.38
2023-02-12T16:36:22.975Z,13.50
2023-02-12T16:38:52.673Z,12.85
2023-02-12T16:41:20.016Z,12.27
2023-02-12T16:43:48.285Z,18.17
2023-02-12T16:46:17.841Z,17.08
2023-02-12T16:48:54.652Z,13.63
2023-02-12T16:51:25.894Z,17.67
2023-02-12T16:53:54.960Z,16.45
2023-02-12T16:56:22.595Z,15.68
2023-02-12T16:58:55.663Z,13.45
2023-02-12T17:01:28.182Z,14.85
2023-02-12T17:03:56.186Z,14.32
2023-02-12T17:06:28.188Z,15.95
2023-02-12T17:08:55.190Z,11.05
2023-02-12T17:11:23.350Z,15.05
2023-02-12T17:13:52.572Z,14.13
2023-02-12T17:16:31.340Z,13.43
2023-02-12T17:19:00.039Z,11.10
2023-02-12T17:21:38.461Z,17.55
2023-02-12T17:24:19.614Z,13.88
2023-02-12T17:26:47.149Z,12.45
2023-02-12T17:29:14.128Z,12.60
2023-02-12T17:31:41.115Z,13.52
2023-02-12T17:34:08.224Z,19.38
2023-02-12T17:36:37.255Z,8.45
2023-02-12T17:39:06.586Z,8.18
2023-02-12T17:41:34.200Z,9.85
2023-02-12T17:44:01.354Z,10.38
2023-02-12T17:46:29.287Z,14.98
2023-02-12T17:48:57.333Z,14.15
2023-02-12T17:51:25.170Z,12.15
2023-02-12T17:53:52.307Z,12.35
2023-02-12T17:56:22.123Z,14.27
2023-02-12T17:58:49.557Z,15.85
2023-02-12T18:01:22.424Z,18.23
2023-02-12T18:03:53.204Z,14.50
2023-02-12T18:06:23.343Z,12.07
2023-02-12T18:08:50.280Z,13.82
2023-02-12T18:11:19.496Z,12.00
2023-02-12T18:13:49.197Z,12.90
2023-02-12T18:16:18.366Z,18.92
2023-02-12T18:18:45.395Z,12.55
2023-02-12T18:21:14.690Z,20.23
2023-02-12T18:23:42.508Z,15.65
2023-02-12T18:26:14.719Z,10.88
2023-02-12T18:28:42.277Z,9.18
2023-02-12T18:31:10.458Z,9.68
2023-02-12T18:33:38.318Z,10.98
2023-02-12T18:36:08.251Z,11.05
2023-02-12T18:38:39.077Z,5.75
2023-02-12T18:41:08.312Z,4.90
2023-02-12T18:43:36.621Z,3.60
2023-02-12T18:46:13.485Z,6.90
2023-02-12T18:48:43.928Z,5.45
2023-02-12T18:51:14.984Z,5.50
2023-02-12T18:53:42.437Z,4.85
2023-02-12T18:56:10.694Z,4.35
2023-02-12T18:58:38.092Z,3.90
2023-02-12T19:01:20.856Z,3.30
2023-02-12T19:03:49.460Z,4.57
2023-02-12T19:06:19.476Z,2.58
2023-02-12T19:08:46.372Z,5.00
2023-02-12T19:11:14.901Z,3.20
2023-02-12T19:13:47.305Z,3.28
2023-02-12T19:16:16.481Z,4.85
2023-02-12T19:18:43.495Z,4.10
2023-02-12T19:21:13.576Z,3.15
2023-02-12T19:23:40.634Z,2.67
2023-02-12T19:26:14.875Z,3.60
2023-02-12T19:31:16.295Z,5.07
2023-02-12T19:33:44.583Z,3.63
2023-02-12T19:36:15.026Z,5.05
2023-02-12T19:38:42.252Z,8.32
2023-02-12T19:41:11.749Z,7.32
2023-02-12T19:43:39.336Z,10.38
2023-02-12T19:46:08.895Z,9.57
2023-02-12T19:48:36.744Z,10.18
2023-02-12T19:51:04.643Z,8.45
2023-02-12T19:53:32.166Z,18.63
2023-02-12T19:56:03.261Z,8.40
2023-02-12T19:58:31.103Z,9.15
2023-02-12T20:00:58.358Z,12.05
2023-02-12T20:03:26.437Z,11.57
2023-02-12T20:06:01.841Z,11.07
2023-02-12T20:08:29.134Z,10.68
2023-02-12T20:10:56.385Z,9.43
2023-02-12T20:13:23.571Z,18.60
2023-02-12T20:15:50.584Z,8.13
2023-02-12T20:18:19.684Z,11.20
2023-02-12T20:20:47.158Z,10.68
2023-02-12T20:23:14.150Z,8.13
2023-02-12T20:25:46.746Z,6.43
2023-02-12T20:28:13.812Z,4.28
2023-02-12T20:30:42.517Z,5.80
2023-02-12T20:33:10.212Z,8.05
2023-02-12T20:35:37.890Z,6.22
2023-02-12T20:38:13.096Z,6.70
2023-02-12T20:40:40.010Z,7.15
2023-02-12T20:43:09.755Z,7.15
2023-02-12T20:45:39.508Z,6.57
2023-02-12T20:48:06.610Z,9.23
2023-02-12T20:50:34.009Z,8.60
2023-02-12T20:53:03.787Z,9.50
2023-02-12T20:55:32.479Z,8.90
2023-02-12T20:57:59.596Z,7.53
2023-02-12T21:00:29.303Z,6.43
2023-02-12T21:03:03.972Z,9.55
2023-02-12T21:05:34.492Z,11.35
2023-02-12T21:08:01.584Z,13.95
2023-02-12T21:10:29.691Z,7.45
2023-02-12T21:12:56.848Z,9.02
2023-02-12T21:15:26.604Z,10.13
2023-02-12T21:17:53.689Z,8.95
2023-02-12T21:20:20.843Z,11.35
2023-02-12T21:22:47.999Z,7.38
2023-02-12T21:25:15.093Z,9.60
2023-02-12T21:27:43.757Z,11.52
2023-02-12T21:30:14.144Z,10.68
2023-02-12T21:32:41.053Z,12.00
2023-02-12T21:35:08.240Z,13.10
2023-02-12T21:37:35.119Z,13.43
2023-02-12T21:40:02.158Z,10.52
2023-02-12T21:42:32.110Z,10.63
2023-02-12T21:44:59.022Z,10.10
2023-02-12T21:47:27.280Z,11.95
2023-02-12T21:49:54.312Z,13.43
2023-02-12T21:52:21.250Z,13.35
2023-02-12T21:54:48.232Z,12.68
2023-02-12T21:57:19.867Z,10.60
2023-02-12T21:59:46.845Z,12.73
2023-02-12T22:02:13.863Z,25.75
2023-02-12T22:04:40.795Z,13.98
2023-02-12T22:07:08.261Z,12.57
2023-02-12T22:09:35.292Z,12.35
2023-02-12T22:12:02.319Z,14.50
2023-02-12T22:14:29.363Z,15.55
2023-02-12T22:16:56.388Z,15.55
2023-02-12T22:19:23.395Z,18.10
2023-02-12T22:21:54.116Z,15.07
2023-02-12T22:24:21.575Z,16.77
2023-02-12T22:26:48.629Z,17.70
2023-02-12T22:29:16.466Z,17.23
2023-02-12T22:31:45.475Z,17.42
2023-02-12T22:34:18.991Z,18.23
2023-02-12T22:36:46.464Z,17.58
2023-02-12T22:39:14.752Z,17.15
2023-02-12T22:41:42.454Z,17.08
2023-02-12T22:44:11.881Z,18.17
2023-02-12T22:46:38.876Z,22.52
2023-02-12T22:49:05.822Z,18.85
2023-02-12T22:51:34.584Z,19.85
2023-02-12T22:54:01.695Z,20.02
2023-02-12T22:56:29.207Z,26.42
2023-02-12T22:58:58.107Z,21.50
2023-02-12T23:01:25.566Z,17.88
2023-02-12T23:03:53.008Z,20.45
2023-02-12T23:06:23.100Z,22.45
2023-02-12T23:08:55.028Z,22.05
2023-02-12T23:11:24.616Z,28.27
2023-02-12T23:13:52.233Z,21.05
2023-02-12T23:16:19.294Z,20.13
2023-02-12T23:18:46.339Z,19.13
2023-02-12T23:21:14.189Z,16.90
2023-02-12T23:23:41.129Z,22.27
2023-02-12T23:26:08.023Z,27.88
2023-02-12T23:28:35.133Z,23.63
2023-02-12T23:31:02.644Z,25.90
2023-02-12T23:33:29.862Z,21.42
2023-02-12T23:35:56.861Z,20.80
2023-02-12T23:38:23.853Z,21.92
2023-02-12T23:40:50.930Z,23.98
2023-02-12T23:43:17.981Z,21.98
2023-02-12T23:45:46.361Z,21.67
2023-02-12T23:48:13.925Z,21.98
2023-02-12T23:50:41.328Z,22.20
2023-02-12T23:53:10.145Z,24.13
2023-02-12T23:55:38.098Z,21.48
2023-02-12T23:58:06.367Z,22.55
